Time;durP1;ratioP1;P1;durP2;ratioP2;P2;SDS_P1;SDS_P2;PMS_P1;PMS_P2;Temp;Humidity;BMP_temperature;BMP_pressure;BME280_temperature;BME280_humidity;BME280_pressure;Samples;Min_cycle;Max_cycle;Signal;HPM_P1;HPM_P2
2024/01/30 00:00:51;;;;;;;57.97;18.30;;;;;;;;;;5074183;28;20593;-76
2024/01/30 00:03:39;;;;;;;55.90;18.77;;;;;;;;;;5074448;28;20207;-76
2024/01/30 00:06:06;;;;;;;147.50;43.70;;;;;;;;;;5074268;28;20199;-76
2024/01/30 00:08:34;;;;;;;85.50;23.40;;;;;;;;;;5074413;28;20191;-76
2024/01/30 00:11:01;;;;;;;114.57;27.13;;;;;;;;;;5074084;28;20231;-77
2024/01/30 00:13:28;;;;;;;69.83;20.67;;;;;;;;;;5074008;28;20195;-76
2024/01/30 00:15:55;;;;;;;113.07;48.33;;;;;;;;;;5074461;28;20206;-76
2024/01/30 00:18:22;;;;;;;73.77;21.93;;;;;;;;;;5056255;28;20248;-77
2024/01/30 00:20:49;;;;;;;68.97;19.63;;;;;;;;;;5056698;28;20280;-76
2024/01/30 00:23:16;;;;;;;60.87;20.20;;;;;;;;;;5056270;28;20191;-76
2024/01/30 00:25:43;;;;;;;118.63;37.83;;;;;;;;;;5074796;28;20583;-76
2024/01/30 00:28:10;;;;;;;83.50;25.33;;;;;;;;;;5074052;28;20203;-76
2024/01/30 00:30:37;;;;;;;73.00;21.63;;;;;;;;;;5074823;28;20202;-76
2024/01/30 00:33:05;;;;;;;71.50;19.87;;;;;;;;;;5073673;28;20199;-76
2024/01/30 00:35:32;;;;;;;48.57;16.83;;;;;;;;;;5073866;28;20212;-76
2024/01/30 00:37:59;;;;;;;44.60;19.83;;;;;;;;;;5073584;28;20199;-76
2024/01/30 00:40:26;;;;;;;68.13;20.33;;;;;;;;;;5073730;28;20230;-76
2024/01/30 00:42:53;;;;;;;51.27;17.90;;;;;;;;;;5073836;28;20210;-75
2024/01/30 00:45:20;;;;;;;55.87;19.00;;;;;;;;;;5073801;28;20220;-77
2024/01/30 00:47:48;;;;;;;52.10;26.50;;;;;;;;;;5056253;28;20660;-78
2024/01/30 00:50:15;;;;;;;56.83;19.57;;;;;;;;;;5073664;28;20202;-76
2024/01/30 00:52:44;;;;;;;69.73;20.73;;;;;;;;;;5073654;28;20198;-77
2024/01/30 00:55:12;;;;;;;80.40;22.07;;;;;;;;;;5056103;28;20648;-77
2024/01/30 00:57:40;;;;;;;177.93;44.07;;;;;;;;;;5055777;28;20187;-77
2024/01/30 01:00:11;;;;;;;88.03;25.50;;;;;;;;;;5055983;28;20218;-76
2024/01/30 01:02:39;;;;;;;94.57;23.37;;;;;;;;;;5073467;28;20239;-76
2024/01/30 01:05:06;;;;;;;56.00;18.27;;;;;;;;;;5073620;28;20207;-76
2024/01/30 01:07:33;;;;;;;56.20;18.07;;;;;;;;;;5073478;28;20206;-75
2024/01/30 01:10:01;;;;;;;66.77;29.40;;;;;;;;;;5055763;28;20211;-75
2024/01/30 01:12:28;;;;;;;62.27;19.50;;;;;;;;;;5055797;28;20270;-75
2024/01/30 01:14:55;;;;;;;52.03;18.13;;;;;;;;;;5073573;28;20207;-75
2024/01/30 01:17:22;;;;;;;39.33;15.67;;;;;;;;;;5055628;28;20200;-77
2024/01/30 01:19:49;;;;;;;42.97;14.77;;;;;;;;;;5073586;28;20250;-77
2024/01/30 01:22:18;;;;;;;58.40;19.27;;;;;;;;;;5073180;28;20215;-76
2024/01/30 01:24:45;;;;;;;71.73;19.73;;;;;;;;;;5073715;28;20598;-76
2024/01/30 01:27:12;;;;;;;53.30;17.83;;;;;;;;;;5073263;28;20214;-76
2024/01/30 01:29:39;;;;;;;69.20;19.20;;;;;;;;;;5073275;28;20199;-76
2024/01/30 01:32:06;;;;;;;109.00;31.63;;;;;;;;;;5073085;28;20206;-76
2024/01/30 01:34:33;;;;;;;51.50;16.83;;;;;;;;;;5074685;28;20209;-76
2024/01/30 01:37:01;;;;;;;68.97;19.60;;;;;;;;;;5077411;28;20202;-76
2024/01/30 01:39:28;;;;;;;56.80;18.30;;;;;;;;;;5077475;28;20598;-76
2024/01/30 01:41:55;;;;;;;57.63;24.47;;;;;;;;;;5076899;28;20231;-76
2024/01/30 01:44:22;;;;;;;51.50;17.07;;;;;;;;;;5077209;28;20764;-77
2024/01/30 01:46:49;;;;;;;63.13;18.77;;;;;;;;;;5059550;28;20194;-77
2024/01/30 01:49:16;;;;;;;47.13;16.67;;;;;;;;;;5077196;28;20195;-76
2024/01/30 01:51:44;;;;;;;75.57;24.97;;;;;;;;;;5059374;28;20633;-76
2024/01/30 01:54:12;;;;;;;73.30;20.10;;;;;;;;;;5076794;28;20195;-75
2024/01/30 01:56:40;;;;;;;56.67;17.93;;;;;;;;;;5076765;28;20614;-76
2024/01/30 01:59:08;;;;;;;76.60;20.70;;;;;;;;;;5058760;28;20199;-77
2024/01/30 02:01:40;;;;;;;36.57;14.47;;;;;;;;;;5058936;28;20281;-76
2024/01/30 02:04:08;;;;;;;48.73;19.23;;;;;;;;;;5043719;28;20208;-76
2024/01/30 02:06:35;;;;;;;54.50;16.97;;;;;;;;;;5077091;28;20196;-76
2024/01/30 02:09:04;;;;;;;47.10;15.83;;;;;;;;;;5058747;28;20574;-75
2024/01/30 02:11:31;;;;;;;38.40;14.93;;;;;;;;;;5058855;28;20592;-74
2024/01/30 02:14:03;;;;;;;46.83;19.43;;;;;;;;;;5076419;28;20199;-78
2024/01/30 02:16:32;;;;;;;35.87;14.53;;;;;;;;;;5059183;28;20714;-78
2024/01/30 02:18:59;;;;;;;41.63;15.63;;;;;;;;;;5058571;28;20203;-77
2024/01/30 02:21:26;;;;;;;29.23;13.07;;;;;;;;;;5076512;28;20215;-77
2024/01/30 02:23:55;;;;;;;28.73;13.00;;;;;;;;;;5042042;28;20286;-76
2024/01/30 02:26:22;;;;;;;33.33;14.63;;;;;;;;;;5042460;28;20191;-77
2024/01/30 02:28:49;;;;;;;56.40;16.43;;;;;;;;;;5076637;28;20270;-77
2024/01/30 02:31:16;;;;;;;44.03;15.27;;;;;;;;;;5076265;28;20578;-77
2024/01/30 02:33:43;;;;;;;44.47;15.33;;;;;;;;;;5076244;28;20195;-77
2024/01/30 02:36:11;;;;;;;46.83;17.63;;;;;;;;;;5076075;28;20195;-78
2024/01/30 02:38:38;;;;;;;38.03;14.07;;;;;;;;;;5075992;28;20539;-76
2024/01/30 02:41:05;;;;;;;33.53;13.50;;;;;;;;;;5075837;28;20219;-76
2024/01/30 02:43:32;;;;;;;39.53;15.07;;;;;;;;;;5075610;28;20667;-76
2024/01/30 02:46:00;;;;;;;33.77;16.73;;;;;;;;;;5075085;28;20660;-77
2024/01/30 02:48:27;;;;;;;54.17;17.73;;;;;;;;;;5076186;28;20211;-76
2024/01/30 02:50:55;;;;;;;39.13;16.10;;;;;;;;;;5076303;28;20194;-77
2024/01/30 02:53:22;;;;;;;48.03;16.53;;;;;;;;;;5075993;28;20199;-76
2024/01/30 02:55:49;;;;;;;41.37;15.27;;;;;;;;;;5075936;28;20270;-76
2024/01/30 02:58:16;;;;;;;35.30;15.30;;;;;;;;;;5075473;28;20199;-76
2024/01/30 03:00:43;;;;;;;52.30;17.57;;;;;;;;;;5075514;28;20242;-76
2024/01/30 03:03:11;;;;;;;54.43;16.67;;;;;;;;;;5075291;28;20192;-76
2024/01/30 03:05:38;;;;;;;33.13;14.27;;;;;;;;;;5075601;28;20213;-76
2024/01/30 03:08:05;;;;;;;46.97;19.93;;;;;;;;;;5075396;28;20593;-76
2024/01/30 03:10:33;;;;;;;35.20;13.87;;;;;;;;;;5075614;28;20591;-77
2024/01/30 03:13:00;;;;;;;49.50;16.77;;;;;;;;;;5075339;28;20198;-76
2024/01/30 03:15:27;;;;;;;53.30;18.80;;;;;;;;;;5075665;28;20199;-76
2024/01/30 03:17:54;;;;;;;37.67;17.60;;;;;;;;;;5075037;28;20675;-77
2024/01/30 03:20:21;;;;;;;66.27;18.90;;;;;;;;;;5075431;28;20195;-76
2024/01/30 03:22:48;;;;;;;35.20;12.87;;;;;;;;;;5074962;28;20215;-77
2024/01/30 03:25:15;;;;;;;43.60;14.87;;;;;;;;;;5075535;28;20249;-77
2024/01/30 03:27:42;;;;;;;52.47;16.63;;;;;;;;;;5075022;28;20199;-76
2024/01/30 03:30:10;;;;;;;36.23;15.47;;;;;;;;;;5075117;28;20191;-77
2024/01/30 03:32:37;;;;;;;44.73;15.23;;;;;;;;;;5074925;28;20191;-76
2024/01/30 03:35:04;;;;;;;45.73;14.87;;;;;;;;;;5074929;28;20202;-76
2024/01/30 03:37:32;;;;;;;44.40;15.20;;;;;;;;;;5074994;28;20192;-76
2024/01/30 03:39:59;;;;;;;29.57;14.20;;;;;;;;;;5074875;28;20188;-76
2024/01/30 03:42:26;;;;;;;40.40;14.23;;;;;;;;;;5074761;28;20225;-76
2024/01/30 03:44:54;;;;;;;39.73;14.00;;;;;;;;;;5074643;28;20203;-76
2024/01/30 03:47:21;;;;;;;27.87;12.13;;;;;;;;;;5074764;28;20199;-77
2024/01/30 03:49:49;;;;;;;58.20;16.90;;;;;;;;;;5074832;28;20199;-77
2024/01/30 03:52:16;;;;;;;78.57;26.47;;;;;;;;;;5056926;28;20203;-76
2024/01/30 03:54:43;;;;;;;46.70;13.73;;;;;;;;;;5074912;28;20196;-76
2024/01/30 03:57:10;;;;;;;56.53;16.30;;;;;;;;;;5074315;28;20215;-76
2024/01/30 03:59:37;;;;;;;49.20;16.90;;;;;;;;;;5074525;28;20207;-77
2024/01/30 04:02:04;;;;;;;83.10;43.63;;;;;;;;;;5056582;28;20231;-77
2024/01/30 04:04:32;;;;;;;81.40;20.47;;;;;;;;;;5074764;28;20195;-76
2024/01/30 04:06:59;;;;;;;85.33;20.07;;;;;;;;;;5074664;28;20214;-76
2024/01/30 04:09:28;;;;;;;94.50;22.53;;;;;;;;;;5074096;28;20199;-77
2024/01/30 04:11:55;;;;;;;370.57;98.80;;;;;;;;;;5074176;28;20202;-76
2024/01/30 04:14:22;;;;;;;89.50;21.83;;;;;;;;;;5074224;28;20203;-77
2024/01/30 04:16:49;;;;;;;48.80;16.17;;;;;;;;;;5074089;28;20649;-77
2024/01/30 04:19:16;;;;;;;63.83;18.37;;;;;;;;;;5073803;28;20195;-76
2024/01/30 04:21:43;;;;;;;26.80;11.63;;;;;;;;;;5073880;28;20231;-77
2024/01/30 04:24:11;;;;;;;71.90;25.10;;;;;;;;;;5073958;28;20195;-76
2024/01/30 04:26:38;;;;;;;53.60;15.20;;;;;;;;;;5073783;28;20652;-76
2024/01/30 04:29:05;;;;;;;29.13;11.33;;;;;;;;;;5073570;28;20196;-77
2024/01/30 04:31:32;;;;;;;37.03;13.23;;;;;;;;;;5056906;28;20195;-76
2024/01/30 04:33:59;;;;;;;58.97;22.50;;;;;;;;;;5073740;28;20518;-76
2024/01/30 04:36:26;;;;;;;44.00;14.37;;;;;;;;;;5056442;28;20566;-77
2024/01/30 04:38:53;;;;;;;30.50;12.17;;;;;;;;;;5073730;28;20210;-76
2024/01/30 04:41:20;;;;;;;28.97;11.77;;;;;;;;;;5073665;28;20686;-76
2024/01/30 04:43:48;;;;;;;32.00;11.93;;;;;;;;;;5073650;28;20625;-76
2024/01/30 04:46:15;;;;;;;33.70;12.80;;;;;;;;;;5073641;28;20203;-77
2024/01/30 04:48:42;;;;;;;22.17;11.10;;;;;;;;;;5073881;28;20187;-78
2024/01/30 04:51:09;;;;;;;30.87;11.97;;;;;;;;;;5073826;28;20195;-77
2024/01/30 04:53:36;;;;;;;26.53;11.27;;;;;;;;;;5074192;28;20196;-77
2024/01/30 04:56:05;;;;;;;32.10;13.03;;;;;;;;;;5074099;28;20198;-76
2024/01/30 04:58:32;;;;;;;23.57;10.43;;;;;;;;;;5073553;28;20202;-77
2024/01/30 05:00:59;;;;;;;27.50;11.00;;;;;;;;;;5073271;28;20242;-77
2024/01/30 05:03:26;;;;;;;19.97;9.97;;;;;;;;;;5073767;28;20242;-77
2024/01/30 05:05:53;;;;;;;26.37;11.27;;;;;;;;;;5073780;28;20283;-77
2024/01/30 05:08:21;;;;;;;24.33;11.30;;;;;;;;;;5056350;28;20240;-77
2024/01/30 05:10:48;;;;;;;41.27;13.77;;;;;;;;;;5053002;28;20211;-77
2024/01/30 05:13:15;;;;;;;29.20;12.30;;;;;;;;;;5058660;28;20236;-78
2024/01/30 05:15:42;;;;;;;24.80;9.80;;;;;;;;;;5072507;28;20727;-77
2024/01/30 05:18:09;;;;;;;26.63;10.53;;;;;;;;;;5071541;28;20234;-77
2024/01/30 05:20:36;;;;;;;56.37;15.43;;;;;;;;;;5060675;28;20232;-77
2024/01/30 05:23:03;;;;;;;33.67;12.53;;;;;;;;;;5058292;28;20700;-77
2024/01/30 05:25:30;;;;;;;21.07;9.67;;;;;;;;;;5072346;28;20280;-77
2024/01/30 05:27:58;;;;;;;26.37;11.57;;;;;;;;;;5071871;28;20223;-76
2024/01/30 05:30:25;;;;;;;39.73;13.40;;;;;;;;;;5072962;28;20229;-77
2024/01/30 05:32:52;;;;;;;27.43;10.97;;;;;;;;;;5072595;28;20598;-77
2024/01/30 05:35:21;;;;;;;27.33;10.73;;;;;;;;;;5073127;28;20677;-77
2024/01/30 05:37:49;;;;;;;38.80;14.43;;;;;;;;;;5071686;28;20227;-76
2024/01/30 05:40:16;;;;;;;25.57;10.57;;;;;;;;;;5071706;28;20284;-77
2024/01/30 05:42:43;;;;;;;27.17;9.70;;;;;;;;;;5072271;28;20247;-76
2024/01/30 05:45:10;;;;;;;27.00;10.57;;;;;;;;;;5071739;28;20233;-76
2024/01/30 05:47:38;;;;;;;19.83;9.83;;;;;;;;;;5071444;28;20219;-76
2024/01/30 05:50:05;;;;;;;25.87;10.50;;;;;;;;;;5071076;28;20227;-77
2024/01/30 05:52:32;;;;;;;27.80;11.00;;;;;;;;;;5072325;28;20590;-77
2024/01/30 05:55:00;;;;;;;23.50;10.03;;;;;;;;;;5072410;28;20844;-76
2024/01/30 05:57:27;;;;;;;22.17;9.40;;;;;;;;;;5070912;28;20223;-76
2024/01/30 05:59:54;;;;;;;21.13;10.37;;;;;;;;;;5072164;28;20602;-76
2024/01/30 06:02:21;;;;;;;24.33;9.50;;;;;;;;;;5089028;28;20233;-76
2024/01/30 06:04:48;;;;;;;28.93;10.50;;;;;;;;;;5092479;28;20199;-76
2024/01/30 06:07:17;;;;;;;19.43;9.40;;;;;;;;;;5093292;28;20547;-76
2024/01/30 06:09:45;;;;;;;14.73;8.13;;;;;;;;;;5075476;28;20693;-76
2024/01/30 06:12:13;;;;;;;20.03;8.93;;;;;;;;;;5093005;28;20203;-76
2024/01/30 06:14:42;;;;;;;27.33;9.33;;;;;;;;;;5092919;28;20210;-76
2024/01/30 06:17:13;;;;;;;16.43;7.63;;;;;;;;;;5093087;28;20190;-76
2024/01/30 06:19:41;;;;;;;22.07;8.90;;;;;;;;;;5092575;28;20202;-76
2024/01/30 06:22:08;;;;;;;29.60;13.13;;;;;;;;;;5076753;28;20218;-76
2024/01/30 06:24:35;;;;;;;25.27;10.17;;;;;;;;;;5096254;28;20206;-77
2024/01/30 06:27:03;;;;;;;18.77;8.47;;;;;;;;;;5079086;28;20244;-76
2024/01/30 06:29:30;;;;;;;27.13;9.87;;;;;;;;;;5096229;28;20202;-76
2024/01/30 06:31:57;;;;;;;16.23;9.10;;;;;;;;;;5078356;28;20252;-76
2024/01/30 06:34:26;;;;;;;26.17;10.63;;;;;;;;;;5096600;28;20263;-76
2024/01/30 06:36:53;;;;;;;44.40;16.70;;;;;;;;;;5096505;28;20632;-76
2024/01/30 06:39:21;;;;;;;63.20;22.10;;;;;;;;;;5078565;28;20585;-76
2024/01/30 06:41:48;;;;;;;30.20;11.20;;;;;;;;;;5096073;28;20215;-76
2024/01/30 06:44:15;;;;;;;31.97;11.07;;;;;;;;;;5096200;28;20218;-76
2024/01/30 06:46:42;;;;;;;23.43;9.60;;;;;;;;;;5096247;28;20187;-76
2024/01/30 06:49:09;;;;;;;21.97;8.97;;;;;;;;;;5096152;28;20198;-76
2024/01/30 06:51:36;;;;;;;21.80;8.53;;;;;;;;;;5095886;28;20195;-76
2024/01/30 06:54:04;;;;;;;20.67;10.10;;;;;;;;;;5096130;28;20210;-76
2024/01/30 06:56:31;;;;;;;23.60;11.17;;;;;;;;;;5077900;28;20187;-76
2024/01/30 06:58:59;;;;;;;42.53;17.63;;;;;;;;;;5096548;28;20198;-76
2024/01/30 07:01:29;;;;;;;22.60;9.40;;;;;;;;;;5095669;28;20613;-76
2024/01/30 07:03:57;;;;;;;45.00;14.67;;;;;;;;;;5096017;28;20273;-77
2024/01/30 07:06:25;;;;;;;26.43;11.60;;;;;;;;;;5078004;28;20199;-76
2024/01/30 07:08:52;;;;;;;24.67;9.93;;;;;;;;;;5071878;28;20203;-76
2024/01/30 07:11:22;;;;;;;45.20;15.37;;;;;;;;;;5075276;28;20200;-76
2024/01/30 07:13:50;;;;;;;23.57;10.80;;;;;;;;;;5053554;28;20284;-77
2024/01/30 07:16:17;;;;;;;33.47;13.97;;;;;;;;;;5054102;28;20204;-76
2024/01/30 07:18:45;;;;;;;47.30;16.07;;;;;;;;;;5055025;28;20200;-77
2024/01/30 07:21:12;;;;;;;38.50;14.60;;;;;;;;;;5055649;28;20549;-76
2024/01/30 07:23:39;;;;;;;40.37;14.50;;;;;;;;;;5053844;28;20215;-76
2024/01/30 07:26:06;;;;;;;32.73;16.33;;;;;;;;;;5055147;28;20215;-75
2024/01/30 07:28:34;;;;;;;31.07;11.57;;;;;;;;;;5054849;28;20266;-77
2024/01/30 07:31:01;;;;;;;30.80;12.77;;;;;;;;;;5055130;28;20196;-76
2024/01/30 07:33:28;;;;;;;30.00;11.73;;;;;;;;;;5053282;28;20184;-76
2024/01/30 07:35:56;;;;;;;28.70;12.57;;;;;;;;;;5055133;28;20196;-76
2024/01/30 07:38:22;;;;;;;39.87;14.60;;;;;;;;;;5053619;28;20208;-76
2024/01/30 07:40:50;;;;;;;36.67;13.50;;;;;;;;;;5054672;28;20618;-76
2024/01/30 07:43:17;;;;;;;19.60;9.13;;;;;;;;;;5053805;28;20223;-76
2024/01/30 07:45:44;;;;;;;26.70;10.63;;;;;;;;;;5054587;28;20204;-76
2024/01/30 07:48:11;;;;;;;21.47;9.60;;;;;;;;;;5054541;28;20205;-76
2024/01/30 07:50:38;;;;;;;29.70;10.93;;;;;;;;;;5054832;28;20201;-76
2024/01/30 07:53:05;;;;;;;33.73;11.43;;;;;;;;;;5053127;28;20282;-76
2024/01/30 07:55:33;;;;;;;28.73;11.10;;;;;;;;;;5054456;28;20211;-77
2024/01/30 07:58:00;;;;;;;32.50;13.60;;;;;;;;;;5056492;28;20204;-76
2024/01/30 08:00:28;;;;;;;26.50;10.83;;;;;;;;;;5074508;28;20636;-77
2024/01/30 08:02:56;;;;;;;18.80;9.70;;;;;;;;;;5074063;28;20219;-78
2024/01/30 08:05:24;;;;;;;22.07;9.80;;;;;;;;;;5056955;28;20249;-77
2024/01/30 08:07:52;;;;;;;29.53;12.27;;;;;;;;;;5073883;28;20293;-77
2024/01/30 08:10:20;;;;;;;22.40;9.93;;;;;;;;;;5073996;28;20211;-76
2024/01/30 08:25:14;;;;;;;25.63;11.87;;;;;;;;;;5066620;28;20549;-80
2024/01/30 08:27:41;;;;;;;37.27;16.47;;;;;;;;;;5066152;28;20195;-80
2024/01/30 08:30:08;;;;;;;66.30;32.40;;;;;;;;;;5104627;27;20561;-80
2024/01/30 08:32:36;;;;;;;34.53;16.03;;;;;;;;;;5066367;28;20255;-81
2024/01/30 08:35:03;;;;;;;46.87;27.00;;;;;;;;;;5048921;28;20626;-81
2024/01/30 08:37:31;;;;;;;62.97;28.23;;;;;;;;;;5056278;28;20200;-81
2024/01/30 08:39:58;;;;;;;71.83;31.70;;;;;;;;;;5066802;27;20591;-81
2024/01/30 08:42:26;;;;;;;27.73;15.40;;;;;;;;;;5066878;28;20222;-81
2024/01/30 08:44:53;;;;;;;56.10;21.00;;;;;;;;;;5067315;27;20279;-80
2024/01/30 08:47:20;;;;;;;56.50;23.10;;;;;;;;;;5066652;28;20237;-80
2024/01/30 08:49:47;;;;;;;30.00;19.17;;;;;;;;;;5065103;28;20203;-80
2024/01/30 08:52:14;;;;;;;25.37;15.23;;;;;;;;;;5066629;28;20218;-81
2024/01/30 08:54:41;;;;;;;35.73;17.10;;;;;;;;;;5067210;27;20242;-81
2024/01/30 08:57:09;;;;;;;21.50;12.83;;;;;;;;;;5066563;28;20231;-81
2024/01/30 08:59:36;;;;;;;27.97;13.67;;;;;;;;;;5125494;27;20204;-80
2024/01/30 09:02:04;;;;;;;20.03;12.20;;;;;;;;;;5172340;27;20720;-81
2024/01/30 09:04:39;;;;;;;27.90;15.43;;;;;;;;;;5171107;27;20666;-81
2024/01/30 09:07:09;;;;;;;33.90;20.93;;;;;;;;;;5171043;27;20185;-80
2024/01/30 09:09:41;;;;;;;32.83;16.00;;;;;;;;;;5170074;27;20196;-81
2024/01/30 09:12:11;;;;;;;31.87;17.87;;;;;;;;;;5170757;27;20192;-81
2024/01/30 09:14:40;;;;;;;36.87;15.73;;;;;;;;;;5087715;27;20219;-81
2024/01/30 09:17:08;;;;;;;60.80;23.37;;;;;;;;;;5066218;28;20306;-81
2024/01/30 09:19:35;;;;;;;27.07;14.47;;;;;;;;;;5066668;27;20207;-81
2024/01/30 09:22:03;;;;;;;19.63;12.70;;;;;;;;;;5065360;28;20199;-80
2024/01/30 09:24:30;;;;;;;25.67;12.00;;;;;;;;;;5062692;27;20234;-81
2024/01/30 09:26:57;;;;;;;23.93;10.03;;;;;;;;;;5051860;28;20196;-81
2024/01/30 09:29:25;;;;;;;28.20;12.60;;;;;;;;;;5053318;27;20189;-81
2024/01/30 09:31:52;;;;;;;24.50;9.77;;;;;;;;;;5052603;28;20200;-80
2024/01/30 09:34:20;;;;;;;31.43;11.37;;;;;;;;;;5052740;27;20577;-81
2024/01/30 09:36:47;;;;;;;26.70;10.03;;;;;;;;;;5052569;28;20208;-81
2024/01/30 09:39:15;;;;;;;42.60;21.07;;;;;;;;;;5051253;28;20237;-80
2024/01/30 09:54:23;;;;;;;31.23;14.33;;;;;;;;;;5131513;27;21087;-80
2024/01/30 09:56:50;;;;;;;30.03;14.03;;;;;;;;;;5111422;28;20193;-80
2024/01/30 09:59:17;;;;;;;20.13;10.27;;;;;;;;;;5109567;28;20202;-80
2024/01/30 10:01:44;;;;;;;22.77;10.00;;;;;;;;;;5110779;28;20190;-80
2024/01/30 10:04:12;;;;;;;15.43;8.97;;;;;;;;;;5099748;28;20540;-80
2024/01/30 10:06:40;;;;;;;21.10;9.73;;;;;;;;;;5089453;28;20194;-80
2024/01/30 10:09:08;;;;;;;16.27;8.27;;;;;;;;;;5106128;28;20281;-81
2024/01/30 10:11:38;;;;;;;20.37;9.33;;;;;;;;;;5110485;28;20225;-81
2024/01/30 10:14:05;;;;;;;36.37;14.53;;;;;;;;;;5097016;28;20686;-80
2024/01/30 10:16:32;;;;;;;35.53;12.67;;;;;;;;;;5090402;28;20209;-80
2024/01/30 10:19:00;;;;;;;34.03;11.23;;;;;;;;;;5089080;28;20191;-80
2024/01/30 10:21:27;;;;;;;21.50;9.20;;;;;;;;;;5089967;28;20285;-80
2024/01/30 10:23:54;;;;;;;28.77;10.27;;;;;;;;;;5089858;28;20214;-80
2024/01/30 10:26:22;;;;;;;27.43;13.30;;;;;;;;;;5089041;28;20199;-80
2024/01/30 10:28:49;;;;;;;24.73;9.50;;;;;;;;;;5090012;28;20294;-80
2024/01/30 10:31:18;;;;;;;22.07;9.70;;;;;;;;;;5089753;28;20203;-80
2024/01/30 10:33:45;;;;;;;19.53;8.60;;;;;;;;;;5072060;28;20361;-80
2024/01/30 10:36:17;;;;;;;13.80;8.93;;;;;;;;;;5089595;28;20195;-80
2024/01/30 10:38:48;;;;;;;19.20;8.57;;;;;;;;;;5088778;28;20203;-80
2024/01/30 10:41:19;;;;;;;22.90;9.17;;;;;;;;;;5082321;28;20194;-80
2024/01/30 10:43:51;;;;;;;18.77;8.80;;;;;;;;;;5088518;28;20272;-80
2024/01/30 10:46:19;;;;;;;23.80;10.27;;;;;;;;;;5088662;28;20187;-81
2024/01/30 10:48:59;;;;;;;18.93;9.07;;;;;;;;;;5089622;28;20705;-80
2024/01/30 10:51:27;;;;;;;20.13;9.40;;;;;;;;;;5088607;28;20203;-80
2024/01/30 10:53:56;;;;;;;23.23;10.20;;;;;;;;;;5082582;28;20288;-80
2024/01/30 10:56:24;;;;;;;21.30;10.77;;;;;;;;;;5075899;28;20547;-80
2024/01/30 10:58:52;;;;;;;28.03;12.10;;;;;;;;;;5074863;28;20211;-80
2024/01/30 11:01:22;;;;;;;21.53;9.97;;;;;;;;;;5075054;28;20195;-80
2024/01/30 11:03:53;;;;;;;22.43;10.10;;;;;;;;;;5074974;28;20208;-80
2024/01/30 11:06:27;;;;;;;22.63;11.40;;;;;;;;;;5091668;28;20191;-80
2024/01/30 11:09:03;;;;;;;23.50;12.80;;;;;;;;;;5075233;28;20674;-79
2024/01/30 11:11:31;;;;;;;27.37;11.23;;;;;;;;;;5076205;28;20195;-77
2024/01/30 11:14:00;;;;;;;17.27;8.67;;;;;;;;;;5075898;28;20195;-81
2024/01/30 11:16:32;;;;;;;19.60;9.03;;;;;;;;;;5075673;28;20617;-78
2024/01/30 11:19:00;;;;;;;22.90;10.90;;;;;;;;;;5074546;28;20253;-76
2024/01/30 11:21:28;;;;;;;23.30;9.80;;;;;;;;;;5075646;28;20282;-77
2024/01/30 11:23:56;;;;;;;38.60;16.13;;;;;;;;;;5075396;28;20223;-77
2024/01/30 11:26:28;;;;;;;18.37;9.80;;;;;;;;;;5074372;28;20196;-78
2024/01/30 11:28:55;;;;;;;23.50;10.52;;;;;;;;;;5075624;28;20294;-77
2024/01/30 11:31:23;;;;;;;35.33;15.43;;;;;;;;;;5075695;28;20215;-77
2024/01/30 11:33:52;;;;;;;35.60;12.03;;;;;;;;;;5075040;28;20211;-79
2024/01/30 11:36:25;;;;;;;21.90;9.33;;;;;;;;;;5075459;28;20204;-78
2024/01/30 11:38:52;;;;;;;32.23;10.00;;;;;;;;;;5074991;28;20567;-78
2024/01/30 11:41:20;;;;;;;35.87;16.93;;;;;;;;;;5090113;28;20277;-78
2024/01/30 11:43:53;;;;;;;34.53;12.37;;;;;;;;;;5077033;28;20235;-79
2024/01/30 11:46:21;;;;;;;23.93;10.27;;;;;;;;;;5095534;28;20252;-78
2024/01/30 11:48:48;;;;;;;25.13;12.85;;;;;;;;;;5095066;28;20211;-78
2024/01/30 11:51:18;;;;;;;54.90;22.58;;;;;;;;;;5094039;28;20650;-78
2024/01/30 11:53:49;;;;;;;30.57;16.97;;;;;;;;;;5110600;28;20240;-78
2024/01/30 11:56:16;;;;;;;29.90;14.67;;;;;;;;;;5115612;28;20637;-79
2024/01/30 11:58:44;;;;;;;21.17;10.73;;;;;;;;;;5115447;28;20206;-78
2024/01/30 12:01:11;;;;;;;33.53;13.07;;;;;;;;;;5115227;28;20212;-78
2024/01/30 12:03:38;;;;;;;48.23;20.03;;;;;;;;;;5115175;28;20704;-78
2024/01/30 12:06:06;;;;;;;26.30;14.47;;;;;;;;;;5114303;28;20186;-78
2024/01/30 12:08:33;;;;;;;42.43;21.57;;;;;;;;;;5115462;28;20212;-78
2024/01/30 12:11:01;;;;;;;25.20;14.60;;;;;;;;;;5115011;28;20202;-78
2024/01/30 12:13:29;;;;;;;21.00;13.47;;;;;;;;;;5094768;28;20260;-77
2024/01/30 12:16:00;;;;;;;43.87;16.40;;;;;;;;;;5094369;28;20217;-78
2024/01/30 12:18:28;;;;;;;19.92;10.23;;;;;;;;;;5092059;28;20198;-79
2024/01/30 12:21:01;;;;;;;21.80;10.40;;;;;;;;;;5097362;28;20202;-79
2024/01/30 12:23:29;;;;;;;27.13;14.38;;;;;;;;;;5114969;28;20226;-78
2024/01/30 12:25:57;;;;;;;22.87;9.87;;;;;;;;;;5115468;28;20209;-78
2024/01/30 12:28:24;;;;;;;32.20;12.43;;;;;;;;;;5115318;28;20205;-77
2024/01/30 12:30:56;;;;;;;40.22;13.25;;;;;;;;;;5114680;28;20279;-78
2024/01/30 12:33:26;;;;;;;27.02;13.05;;;;;;;;;;5115091;28;20294;-78
2024/01/30 12:35:54;;;;;;;24.83;11.00;;;;;;;;;;5114756;28;20212;-78
2024/01/30 12:38:29;;;;;;;33.67;16.23;;;;;;;;;;5114840;28;20205;-78
2024/01/30 12:40:56;;;;;;;31.57;13.20;;;;;;;;;;5114479;28;20210;-78
2024/01/30 12:43:25;;;;;;;37.80;15.00;;;;;;;;;;5096384;28;20225;-78
2024/01/30 12:46:04;;;;;;;24.63;14.20;;;;;;;;;;5114541;28;20206;-78
2024/01/30 12:48:31;;;;;;;36.87;13.77;;;;;;;;;;5096761;28;20210;-78
2024/01/30 12:50:59;;;;;;;26.47;11.40;;;;;;;;;;5114519;28;20194;-78
2024/01/30 12:53:26;;;;;;;33.03;13.07;;;;;;;;;;5079654;28;20243;-78
2024/01/30 12:55:54;;;;;;;101.28;37.85;;;;;;;;;;5114301;28;20206;-78
2024/01/30 12:58:21;;;;;;;49.83;16.48;;;;;;;;;;5114777;28;20221;-78
2024/01/30 13:00:48;;;;;;;30.55;12.48;;;;;;;;;;5114299;28;20198;-78
2024/01/30 13:03:16;;;;;;;39.23;15.33;;;;;;;;;;5099982;28;20573;-78
2024/01/30 13:05:43;;;;;;;39.17;14.43;;;;;;;;;;5093906;28;20223;-78
2024/01/30 13:08:10;;;;;;;41.10;18.93;;;;;;;;;;5093820;28;20726;-78
2024/01/30 13:10:37;;;;;;;62.13;21.70;;;;;;;;;;5093551;28;20225;-78
2024/01/30 13:13:04;;;;;;;42.33;16.57;;;;;;;;;;5093853;28;20213;-77
2024/01/30 13:15:36;;;;;;;37.47;15.20;;;;;;;;;;5092037;28;20230;-78
2024/01/30 13:18:05;;;;;;;29.43;16.00;;;;;;;;;;5093661;28;20213;-78
2024/01/30 13:20:32;;;;;;;39.10;12.52;;;;;;;;;;5093580;28;20214;-78
2024/01/30 13:22:59;;;;;;;70.05;20.80;;;;;;;;;;5093444;28;20728;-78
2024/01/30 13:25:26;;;;;;;24.85;11.57;;;;;;;;;;5092376;28;20202;-78
2024/01/30 13:27:54;;;;;;;28.80;12.27;;;;;;;;;;5093713;28;20206;-78
2024/01/30 13:30:21;;;;;;;39.30;14.30;;;;;;;;;;5102484;28;20271;-77
2024/01/30 13:32:48;;;;;;;40.23;13.13;;;;;;;;;;5113741;28;20206;-78
2024/01/30 13:35:15;;;;;;;36.27;12.93;;;;;;;;;;5113136;28;20217;-78
2024/01/30 13:37:42;;;;;;;31.43;11.80;;;;;;;;;;5111348;28;20255;-79
2024/01/30 13:40:10;;;;;;;39.57;17.10;;;;;;;;;;5107155;28;20560;-79
2024/01/30 13:42:40;;;;;;;27.60;11.35;;;;;;;;;;5104074;28;20309;-79
2024/01/30 13:45:09;;;;;;;44.38;13.77;;;;;;;;;;5094046;28;20226;-79
2024/01/30 13:47:37;;;;;;;26.33;11.30;;;;;;;;;;5098698;28;20222;-79
2024/01/30 13:50:05;;;;;;;40.58;23.00;;;;;;;;;;5108407;28;20687;-80
2024/01/30 13:52:33;;;;;;;33.15;12.30;;;;;;;;;;5101199;28;20226;-79
2024/01/30 13:55:11;;;;;;;45.28;14.48;;;;;;;;;;5097570;28;20214;-79
2024/01/30 13:57:38;;;;;;;48.15;17.13;;;;;;;;;;5093157;28;20687;-79
2024/01/30 14:00:06;;;;;;;46.30;16.35;;;;;;;;;;5092417;28;20223;-79
2024/01/30 14:02:38;;;;;;;38.00;15.25;;;;;;;;;;5092535;28;20690;-79
2024/01/30 14:05:06;;;;;;;36.30;13.67;;;;;;;;;;5094418;28;20229;-79
2024/01/30 14:07:33;;;;;;;25.75;11.30;;;;;;;;;;5095787;28;20235;-79
2024/01/30 14:10:01;;;;;;;20.60;10.23;;;;;;;;;;5076078;28;20235;-79
2024/01/30 14:12:31;;;;;;;35.70;14.85;;;;;;;;;;5095217;28;20288;-79
2024/01/30 14:14:58;;;;;;;30.77;11.97;;;;;;;;;;5104228;28;20229;-79
2024/01/30 14:17:26;;;;;;;31.20;11.65;;;;;;;;;;5112874;28;20283;-79
2024/01/30 14:19:53;;;;;;;28.95;11.35;;;;;;;;;;5094761;28;20226;-79
2024/01/30 14:22:20;;;;;;;37.63;17.53;;;;;;;;;;5111186;28;20198;-79
2024/01/30 14:24:47;;;;;;;39.38;13.15;;;;;;;;;;5093554;28;20226;-79
2024/01/30 14:27:14;;;;;;;30.40;11.53;;;;;;;;;;5096507;28;20198;-79
2024/01/30 14:29:43;;;;;;;26.30;11.33;;;;;;;;;;5113749;28;20201;-79
2024/01/30 14:32:09;;;;;;;19.92;9.73;;;;;;;;;;5115833;28;20198;-79
2024/01/30 14:34:37;;;;;;;33.23;12.90;;;;;;;;;;5116328;28;20206;-80
2024/01/30 14:37:04;;;;;;;45.30;12.97;;;;;;;;;;5108394;28;20230;-79
2024/01/30 14:39:32;;;;;;;31.13;11.43;;;;;;;;;;5112863;28;20214;-79
2024/01/30 14:41:59;;;;;;;29.50;10.60;;;;;;;;;;5116473;28;20210;-79
2024/01/30 14:44:27;;;;;;;34.70;17.77;;;;;;;;;;5112612;28;20279;-79
2024/01/30 14:46:55;;;;;;;27.77;11.67;;;;;;;;;;5110551;28;20209;-79